Terminal Aerodrome Forecast
Issued by NWS

Home | Current Version | Previous Version | Text Only | Print | Product List | Glossary On
Versions: 1 2 3 4 5 6 7 8 9 10 11 12 13 14 15 16 17 18 19 20 21 22 23 24 25
000
FTUS43 KMKX 210520
TAFENW
TAF
KENW 210520Z 2106/2206 18004KT P6SM BKN150
     FM210800 22005KT P6SM VCSH OVC100
     FM211700 24011KT 4SM -SHRA OVC035
     FM212100 25013G20KT 4SM -SHRA OVC025
     FM220000 27011G18KT P6SM OVC040
     FM220300 33013KT P6SM SCT040=

USA.gov is the U.S. government's official web portal to all federal, state and local government web resources and services.